GCLP/LPA METAR and TAF weather

Enter ICAO airport designator
Station Type Date Time Source
GCLP METAR 2018/06/25 02:00 UTC NOAA

GCLP 250200Z 36009KT 9999 FEW025 20/15 Q1017 NOSIG


Station Type Date Time Source
GCLP Decoded METAR 2018/06/25 02:00 UTC NOAA

Gran Canaria - Canary Islands, Spain (GCLP) 27-56N 015-23W 47M
Jun 24, 2018 - 10:00 PM EDT / 2018.06.25 0200 UTC
Wind: from the N (360 degrees) at 10 MPH (9 KT):0
Visibility: greater than 7 mile(s):0
Sky conditions: mostly clear
Temperature: 68 F (20 C)
Dew Point: 59 F (15 C)
Relative Humidity: 72%
Pressure (altimeter): 30.03 in. Hg (1017 hPa)
ob: GCLP 250200Z 36009KT 9999 FEW025 20/15 Q1017 NOSIG
cycle: 2

Station Type Date Time Source
GCLP TAF 2018/06/25 03:27 UTC NOAA

TAF GCLP 250200Z 2503/2603 36012KT 9999 FEW025 TX26/2514Z TN19/2505Z PROB30
TEMPO 2512/2521 01015G25KT


Example: see airport list